Edward, North Carolina
Current Conditions -  °F | °C
As of 3:54 AM on Friday 19 Dec 2014 (Local Time) from KEWN Reporting Station
Overcast Overcast  
Wind Chill: 36°   Ceiling: 7000
Heat Index: 36°   Visibility: 10mi
Dew Point: 33°   Wind: 0mph
Humidity: 89%   Direction: NA
Pressure: 30.11"   Gusts: NA
Location:  35.32°N, 76.88°W
Report Text: KEWN 190854Z AUTO 00000KT 10SM OVC070 02/01 A3011 RMK AO2 SLP196 T00220006 50001
Loading
Personal Weather Stations






























Interactive Weather Map New forecast layout! Learn more

10-Day Weather Forecast

Advertisements
Track Severe Weather on mobile